createdAt,value
2018-12-20T00:01:01.996Z,92.60
2018-12-20T00:03:30.871Z,92.60
2018-12-20T00:05:59.960Z,92.70
2018-12-20T00:08:28.498Z,92.90
2018-12-20T00:10:57.004Z,93.10
2018-12-20T00:13:25.437Z,93.30
2018-12-20T00:15:53.872Z,93.50
2018-12-20T00:18:22.423Z,93.60
2018-12-20T00:20:51.083Z,93.80
2018-12-20T00:23:19.565Z,93.80
2018-12-20T00:25:48.086Z,93.80
2018-12-20T00:28:17.166Z,93.70
2018-12-20T00:30:49.620Z,93.70
2018-12-20T00:33:18.325Z,93.80
2018-12-20T00:35:46.774Z,93.80
2018-12-20T00:38:15.340Z,93.90
2018-12-20T00:40:43.824Z,94.10
2018-12-20T00:43:12.301Z,94.30
2018-12-20T00:45:40.695Z,94.60
2018-12-20T00:48:09.198Z,94.70
2018-12-20T00:50:37.700Z,94.90
2018-12-20T00:53:06.172Z,95.00
2018-12-20T00:55:34.857Z,95.10
2018-12-20T00:58:03.489Z,94.90
2018-12-20T01:00:32.135Z,94.80
2018-12-20T01:03:05.742Z,94.80
2018-12-20T01:05:34.683Z,94.80
2018-12-20T01:08:03.414Z,94.90
2018-12-20T01:10:31.914Z,94.90
2018-12-20T01:13:00.451Z,95.10
2018-12-20T01:15:29.516Z,95.30
2018-12-20T01:17:58.920Z,95.50
2018-12-20T01:20:27.330Z,95.50
2018-12-20T01:22:55.832Z,95.40
2018-12-20T01:25:24.291Z,95.30
2018-12-20T01:27:53.460Z,95.10
2018-12-20T01:30:22.051Z,95.00
2018-12-20T01:32:50.773Z,94.80
2018-12-20T01:35:19.549Z,94.80
2018-12-20T01:37:48.344Z,94.90
2018-12-20T01:40:16.926Z,94.90
2018-12-20T01:42:45.520Z,94.90
2018-12-20T01:45:14.521Z,94.80
2018-12-20T01:47:43.104Z,94.80
2018-12-20T01:50:11.621Z,94.70
2018-12-20T01:52:40.123Z,94.60
2018-12-20T01:55:08.582Z,94.60
2018-12-20T01:57:37.072Z,94.50
2018-12-20T02:00:09.256Z,94.50
2018-12-20T02:02:37.905Z,94.50
2018-12-20T02:05:07.175Z,94.50
2018-12-20T02:07:35.657Z,94.50
2018-12-20T02:10:04.675Z,94.40
2018-12-20T02:12:33.326Z,94.40
2018-12-20T02:15:02.456Z,94.30
2018-12-20T02:17:31.187Z,94.30
2018-12-20T02:20:00.603Z,94.20
2018-12-20T02:22:29.077Z,94.10
2018-12-20T02:24:57.490Z,94.00
2018-12-20T02:27:26.623Z,94.00
2018-12-20T02:29:56.066Z,93.90
2018-12-20T02:32:24.571Z,93.80
2018-12-20T02:34:53.027Z,93.70
2018-12-20T02:37:21.579Z,93.60
2018-12-20T02:39:50.196Z,93.60
2018-12-20T02:42:18.966Z,93.70
2018-12-20T02:44:47.378Z,93.80
2018-12-20T02:47:15.922Z,93.80
2018-12-20T02:49:48.818Z,93.80
2018-12-20T02:52:17.356Z,93.80
2018-12-20T02:54:45.924Z,93.80
2018-12-20T02:57:14.432Z,93.60
2018-12-20T02:59:42.964Z,93.50
2018-12-20T03:02:11.709Z,93.60
2018-12-20T03:04:40.598Z,93.70
2018-12-20T03:07:09.483Z,94.00
2018-12-20T03:09:38.933Z,94.30
2018-12-20T03:12:07.379Z,94.60
2018-12-20T03:14:36.709Z,95.00
2018-12-20T03:17:05.258Z,95.30
2018-12-20T03:19:34.244Z,95.50
2018-12-20T03:22:03.377Z,95.60
2018-12-20T03:24:38.366Z,95.80
2018-12-20T03:27:06.984Z,96.00
2018-12-20T03:29:35.641Z,96.20
2018-12-20T03:32:05.193Z,96.40
2018-12-20T03:34:33.653Z,96.50
2018-12-20T03:37:02.107Z,96.50
2018-12-20T03:39:31.658Z,96.50
2018-12-20T03:42:00.580Z,96.40
2018-12-20T03:44:29.053Z,96.10
2018-12-20T03:46:57.572Z,95.80
2018-12-20T03:49:26.210Z,95.60
2018-12-20T03:51:55.020Z,95.40
2018-12-20T03:54:23.595Z,95.20
2018-12-20T03:56:52.026Z,95.10
2018-12-20T03:59:20.584Z,95.10
2018-12-20T04:01:50.890Z,95.20
2018-12-20T04:04:20.585Z,95.40
2018-12-20T04:06:49.209Z,95.70
2018-12-20T04:09:18.025Z,96.00
2018-12-20T04:11:46.414Z,96.50
2018-12-20T04:14:20.329Z,96.90
2018-12-20T04:16:49.839Z,97.40
2018-12-20T04:19:19.122Z,97.80
2018-12-20T04:21:48.218Z,98.20
2018-12-20T04:24:16.936Z,98.50
2018-12-20T04:26:45.453Z,98.60
2018-12-20T04:29:14.172Z,98.70
2018-12-20T04:31:42.992Z,98.80
2018-12-20T04:34:11.587Z,98.70
2018-12-20T04:36:40.125Z,98.60
2018-12-20T04:39:09.036Z,98.50
2018-12-20T04:41:38.507Z,98.50
2018-12-20T04:44:07.017Z,98.40
2018-12-20T04:46:35.505Z,98.10
2018-12-20T04:49:04.219Z,98.00
2018-12-20T04:51:32.921Z,97.90
2018-12-20T04:54:03.257Z,97.60
2018-12-20T04:56:31.763Z,97.30
2018-12-20T04:59:00.551Z,97.00
2018-12-20T05:01:29.340Z,96.80
2018-12-20T05:03:58.227Z,96.70
2018-12-20T05:06:26.777Z,96.50
2018-12-20T05:08:55.190Z,96.30
2018-12-20T05:11:23.911Z,96.20
2018-12-20T05:13:52.350Z,96.10
2018-12-20T05:16:21.911Z,96.00
2018-12-20T05:18:50.472Z,95.90
2018-12-20T05:21:19.103Z,95.70
2018-12-20T05:23:47.983Z,95.60
2018-12-20T05:26:16.440Z,95.60
2018-12-20T05:28:44.995Z,95.50
2018-12-20T05:31:13.490Z,95.40
2018-12-20T05:33:42.446Z,95.20
2018-12-20T05:36:10.885Z,95.10
2018-12-20T05:38:39.270Z,95.10
2018-12-20T05:41:07.678Z,95.00
2018-12-20T05:43:36.313Z,94.90
2018-12-20T05:46:04.767Z,94.70
2018-12-20T05:48:33.726Z,94.70
2018-12-20T05:51:02.224Z,94.60
2018-12-20T05:53:32.678Z,94.60
2018-12-20T05:56:01.210Z,94.60
2018-12-20T05:58:29.609Z,94.70
2018-12-20T06:01:03.253Z,94.70
2018-12-20T06:03:31.916Z,94.80
2018-12-20T06:06:00.426Z,94.80
2018-12-20T06:08:31.187Z,94.80
2018-12-20T06:11:00.533Z,94.70
2018-12-20T06:13:29.099Z,94.60
2018-12-20T06:15:58.329Z,94.70
2018-12-20T06:18:27.037Z,94.70
2018-12-20T06:20:55.568Z,94.70
2018-12-20T06:23:23.996Z,94.80
2018-12-20T06:25:52.489Z,94.80
2018-12-20T06:28:20.985Z,94.90
2018-12-20T06:30:49.773Z,94.80
2018-12-20T06:33:18.185Z,94.90
2018-12-20T06:35:46.754Z,94.90
2018-12-20T06:38:15.482Z,94.90
2018-12-20T06:40:44.464Z,94.90
2018-12-20T06:43:13.627Z,94.90
2018-12-20T06:45:42.167Z,94.90
2018-12-20T06:48:10.610Z,94.80
2018-12-20T06:50:39.096Z,94.80
2018-12-20T06:53:07.660Z,94.70
2018-12-20T06:55:36.163Z,94.70
2018-12-20T06:58:04.589Z,94.60
2018-12-20T07:00:33.279Z,94.60
2018-12-20T07:03:03.145Z,94.60
2018-12-20T07:05:31.550Z,94.50
2018-12-20T07:08:00.232Z,94.50
2018-12-20T07:10:28.651Z,94.30
2018-12-20T07:12:57.119Z,94.20
2018-12-20T07:15:25.834Z,94.10
2018-12-20T07:17:55.077Z,94.00
2018-12-20T07:20:23.517Z,94.10
2018-12-20T07:22:52.394Z,94.20
2018-12-20T07:25:22.005Z,94.30
2018-12-20T07:27:50.679Z,94.40
2018-12-20T07:30:19.459Z,94.40
2018-12-20T07:32:49.490Z,94.40
2018-12-20T07:35:18.430Z,94.40
2018-12-20T07:37:46.791Z,94.30
2018-12-20T07:40:15.472Z,94.20
2018-12-20T07:42:49.061Z,94.10
2018-12-20T07:45:23.996Z,94.10
2018-12-20T07:47:52.455Z,94.10
2018-12-20T07:50:21.096Z,94.20
2018-12-20T07:52:50.306Z,94.20
2018-12-20T07:55:18.735Z,94.30
2018-12-20T07:57:47.740Z,94.40
2018-12-20T08:00:17.225Z,94.50
2018-12-20T08:02:46.130Z,94.50
2018-12-20T08:05:14.573Z,94.50
2018-12-20T08:07:43.415Z,94.40
2018-12-20T08:10:12.646Z,94.30
2018-12-20T08:12:41.131Z,94.20
2018-12-20T08:15:09.785Z,94.00
2018-12-20T08:17:38.260Z,93.90
2018-12-20T08:20:07.229Z,93.80
2018-12-20T08:22:36.411Z,93.80
2018-12-20T08:25:05.111Z,93.80
2018-12-20T08:27:33.612Z,93.80
2018-12-20T08:30:02.792Z,93.80
2018-12-20T08:32:31.995Z,93.80
2018-12-20T08:35:01.193Z,93.70
2018-12-20T08:37:30.423Z,93.50
2018-12-20T08:39:59.624Z,93.40
2018-12-20T08:42:28.776Z,93.20
2018-12-20T08:44:57.928Z,93.00
2018-12-20T08:47:27.403Z,92.90
2018-12-20T08:49:56.617Z,92.70
2018-12-20T08:52:26.103Z,92.70
2018-12-20T08:54:55.234Z,92.70
2018-12-20T08:57:25.160Z,92.70
2018-12-20T08:59:54.967Z,92.50
2018-12-20T09:02:24.197Z,92.30
2018-12-20T09:04:53.403Z,92.10
2018-12-20T09:07:22.644Z,92.00
2018-12-20T09:09:51.856Z,91.80
2018-12-20T09:12:21.119Z,91.80
2018-12-20T09:14:50.372Z,91.70
2018-12-20T09:17:22.651Z,91.80
2018-12-20T09:19:51.885Z,91.90
2018-12-20T09:22:20.531Z,91.90
2018-12-20T09:24:50.067Z,91.90
2018-12-20T09:27:20.104Z,92.00
2018-12-20T09:29:49.962Z,92.30
2018-12-20T09:32:19.201Z,92.50
2018-12-20T09:34:48.363Z,92.70
2018-12-20T09:37:17.573Z,93.10
2018-12-20T09:39:47.601Z,93.30
2018-12-20T09:42:16.993Z,93.50
2018-12-20T09:44:46.353Z,93.70
2018-12-20T09:47:20.894Z,93.70
2018-12-20T09:49:50.099Z,93.50
2018-12-20T09:52:19.301Z,93.40
2018-12-20T09:54:48.916Z,93.30
2018-12-20T09:57:18.077Z,93.20
2018-12-20T09:59:47.847Z,93.20
2018-12-20T10:02:17.055Z,93.30
2018-12-20T10:04:46.219Z,93.40
2018-12-20T10:07:15.439Z,93.30
2018-12-20T10:09:44.621Z,93.30
2018-12-20T10:12:13.804Z,93.40
2018-12-20T10:14:43.035Z,93.40
2018-12-20T10:17:19.709Z,93.40
2018-12-20T10:19:42.789Z,93.40
2018-12-20T10:22:11.998Z,93.60
2018-12-20T10:24:41.135Z,93.70
2018-12-20T10:27:10.371Z,93.80
2018-12-20T10:29:39.575Z,93.80
2018-12-20T10:32:08.743Z,93.90
2018-12-20T10:34:37.906Z,93.90
2018-12-20T10:37:07.683Z,94.00
2018-12-20T10:39:36.883Z,94.00
2018-12-20T10:42:06.296Z,94.00
2018-12-20T10:44:35.902Z,94.00
2018-12-20T10:47:10.347Z,94.00
2018-12-20T10:49:39.839Z,93.90
2018-12-20T10:52:09.065Z,94.00
2018-12-20T10:54:38.483Z,93.90
2018-12-20T10:57:07.643Z,93.90
2018-12-20T10:59:36.809Z,93.80
2018-12-20T11:02:11.380Z,93.80
2018-12-20T11:04:45.790Z,93.80
2018-12-20T11:07:20.626Z,93.70
2018-12-20T11:09:55.103Z,93.50
2018-12-20T11:12:26.739Z,93.50
2018-12-20T11:14:56.153Z,93.50
2018-12-20T11:17:25.331Z,93.40
2018-12-20T11:19:54.504Z,93.40
2018-12-20T11:22:23.832Z,93.40
2018-12-20T11:24:52.953Z,93.40
2018-12-20T11:27:22.138Z,93.40
2018-12-20T11:29:51.308Z,93.40
2018-12-20T11:32:20.476Z,93.30
2018-12-20T11:34:49.696Z,93.30
2018-12-20T11:37:18.874Z,93.40
2018-12-20T11:39:48.112Z,93.40
2018-12-20T11:42:17.738Z,93.40
2018-12-20T11:44:46.954Z,93.60
2018-12-20T11:47:21.337Z,93.70
2018-12-20T11:49:50.595Z,93.90
2018-12-20T11:52:19.792Z,94.00
2018-12-20T11:54:49.822Z,94.00
2018-12-20T11:57:19.007Z,94.10
2018-12-20T11:59:48.180Z,94.10
2018-12-20T12:02:24.426Z,94.10
2018-12-20T12:04:48.690Z,94.20
2018-12-20T12:07:18.768Z,94.40
2018-12-20T12:09:47.963Z,94.70
2018-12-20T12:12:17.215Z,94.90
2018-12-20T12:14:46.398Z,95.20
2018-12-20T12:17:15.534Z,95.50
2018-12-20T12:19:44.726Z,95.70
2018-12-20T12:22:13.871Z,95.80
2018-12-20T12:24:42.633Z,95.80
2018-12-20T12:27:11.049Z,95.80
2018-12-20T12:29:39.529Z,95.70
2018-12-20T12:32:08.191Z,95.60
2018-12-20T12:34:36.655Z,95.60
2018-12-20T12:37:05.135Z,95.60
2018-12-20T12:39:33.749Z,95.70
2018-12-20T12:42:02.304Z,96.20
2018-12-20T12:44:30.959Z,96.70
2018-12-20T12:46:59.432Z,97.50
2018-12-20T12:49:28.031Z,97.90
2018-12-20T12:51:57.361Z,98.20
2018-12-20T12:54:25.883Z,98.40
2018-12-20T12:56:54.309Z,98.40
2018-12-20T12:59:25.069Z,98.80
2018-12-20T13:01:54.000Z,98.80
2018-12-20T13:04:22.419Z,99.00
2018-12-20T13:06:50.842Z,99.30
2018-12-20T13:09:19.327Z,99.50
2018-12-20T13:11:47.838Z,99.70
2018-12-20T13:14:16.294Z,99.80
2018-12-20T13:16:44.723Z,99.80
2018-12-20T13:19:13.151Z,99.70
2018-12-20T13:21:42.008Z,99.60
2018-12-20T13:24:10.448Z,99.40
2018-12-20T13:26:38.838Z,99.20
2018-12-20T13:29:07.314Z,98.90
2018-12-20T13:31:35.865Z,98.80
2018-12-20T13:34:04.303Z,98.70
2018-12-20T13:36:32.968Z,98.50
2018-12-20T13:39:01.560Z,98.40
2018-12-20T13:41:30.793Z,98.40
2018-12-20T13:43:59.297Z,98.50
2018-12-20T13:46:27.779Z,98.60
2018-12-20T13:48:56.184Z,98.60
2018-12-20T13:51:24.592Z,98.80
2018-12-20T13:53:53.307Z,98.80
2018-12-20T13:56:21.726Z,98.90
2018-12-20T13:58:50.257Z,98.80
2018-12-20T14:01:19.020Z,98.70
2018-12-20T14:03:47.439Z,98.60
2018-12-20T14:06:16.142Z,98.40
2018-12-20T14:08:44.581Z,98.40
2018-12-20T14:11:14.056Z,98.50
2018-12-20T14:13:42.675Z,98.70
2018-12-20T14:16:11.071Z,99.00
2018-12-20T14:18:39.621Z,99.20
2018-12-20T14:21:07.995Z,99.50
2018-12-20T14:23:36.421Z,99.80
2018-12-20T14:26:05.138Z,99.90
2018-12-20T14:28:33.814Z,99.90
2018-12-20T14:31:02.374Z,99.90
2018-12-20T14:33:32.802Z,99.90
2018-12-20T14:36:01.334Z,99.90
2018-12-20T14:38:29.850Z,99.90
2018-12-20T14:40:58.275Z,99.90
2018-12-20T14:43:26.830Z,99.90
2018-12-20T14:45:55.310Z,99.90
2018-12-20T14:48:29.640Z,99.90
2018-12-20T14:50:59.196Z,99.90
2018-12-20T14:53:27.701Z,99.90
2018-12-20T14:55:56.181Z,99.90
2018-12-20T14:58:24.665Z,99.90
2018-12-20T15:00:53.123Z,99.90
2018-12-20T15:03:21.550Z,99.90
2018-12-20T15:05:50.283Z,99.90
2018-12-20T15:08:22.451Z,99.90
2018-12-20T15:10:51.166Z,99.90
2018-12-20T15:13:19.700Z,99.90
2018-12-20T15:15:48.243Z,99.90
2018-12-20T15:18:16.765Z,99.90
2018-12-20T15:20:45.219Z,99.90
2018-12-20T15:23:14.238Z,99.90
2018-12-20T15:25:42.719Z,99.90
2018-12-20T15:28:12.983Z,99.90
2018-12-20T15:30:41.636Z,99.90
2018-12-20T15:33:10.056Z,99.90
2018-12-20T15:35:38.450Z,99.90
2018-12-20T15:38:06.881Z,99.90
2018-12-20T15:40:35.370Z,99.90
2018-12-20T15:43:03.888Z,99.90
2018-12-20T15:45:32.255Z,99.90
2018-12-20T15:48:00.707Z,99.90
2018-12-20T15:50:29.520Z,99.90
2018-12-20T15:52:57.985Z,99.90
2018-12-20T15:55:26.393Z,99.90
2018-12-20T15:57:54.871Z,99.90
2018-12-20T16:00:23.445Z,99.90
2018-12-20T16:02:51.906Z,99.90
2018-12-20T16:05:20.345Z,99.90
2018-12-20T16:07:48.880Z,99.90
2018-12-20T16:10:18.935Z,99.90
2018-12-20T16:12:47.444Z,99.90
2018-12-20T16:15:16.175Z,99.90
2018-12-20T16:17:45.347Z,99.90
2018-12-20T16:20:13.837Z,99.90
2018-12-20T16:22:42.239Z,99.90
2018-12-20T16:25:10.954Z,99.90
2018-12-20T16:27:39.424Z,99.90
2018-12-20T16:30:10.107Z,99.90
2018-12-20T16:32:38.631Z,99.80
2018-12-20T16:35:07.921Z,99.80
2018-12-20T16:37:36.383Z,99.70
2018-12-20T16:40:05.537Z,99.70
2018-12-20T16:42:34.003Z,99.70
2018-12-20T16:45:02.508Z,99.70
2018-12-20T16:47:30.995Z,99.70
2018-12-20T16:49:59.867Z,99.80
2018-12-20T16:52:28.359Z,99.90
2018-12-20T16:54:56.876Z,99.90
2018-12-20T16:57:25.308Z,99.90
2018-12-20T16:59:54.091Z,99.90
2018-12-20T17:02:22.473Z,99.90
2018-12-20T17:04:50.915Z,99.90
2018-12-20T17:07:19.358Z,99.90
2018-12-20T17:09:47.822Z,99.90
2018-12-20T17:12:16.223Z,99.90
2018-12-20T17:14:44.947Z,99.90
2018-12-20T17:17:13.347Z,99.90
2018-12-20T17:19:42.191Z,99.90
2018-12-20T17:22:10.591Z,99.90
2018-12-20T17:24:39.007Z,99.90
2018-12-20T17:27:07.422Z,99.90
2018-12-20T17:29:35.876Z,99.90
2018-12-20T17:32:04.370Z,99.90
2018-12-20T17:34:33.877Z,99.90
2018-12-20T17:37:02.340Z,99.90
2018-12-20T17:39:30.760Z,99.90
2018-12-20T17:41:59.164Z,99.90
2018-12-20T17:44:27.651Z,99.90
2018-12-20T17:46:56.316Z,99.90
2018-12-20T17:49:30.459Z,99.90
2018-12-20T17:51:55.206Z,99.90
2018-12-20T17:54:23.605Z,99.90
2018-12-20T17:56:52.624Z,99.90
2018-12-20T17:59:21.113Z,99.90
2018-12-20T18:01:49.594Z,99.90
2018-12-20T18:04:19.083Z,99.90
2018-12-20T18:06:47.567Z,99.90
2018-12-20T18:09:16.085Z,99.90
2018-12-20T18:11:44.651Z,99.90
2018-12-20T18:14:13.133Z,99.90
2018-12-20T18:16:41.619Z,99.90
2018-12-20T18:19:12.283Z,99.90
2018-12-20T18:21:40.720Z,99.90
2018-12-20T18:24:09.328Z,99.90
2018-12-20T18:26:38.543Z,99.90
2018-12-20T18:29:06.988Z,99.90
2018-12-20T18:31:35.436Z,99.90
2018-12-20T18:34:04.158Z,99.90
2018-12-20T18:36:32.595Z,99.90
2018-12-20T18:39:01.072Z,99.90
2018-12-20T18:41:30.551Z,99.90
2018-12-20T18:44:00.157Z,99.90
2018-12-20T18:46:29.188Z,99.90
2018-12-20T18:48:59.035Z,99.90
2018-12-20T18:51:27.529Z,99.90
2018-12-20T18:53:56.080Z,99.90
2018-12-20T18:56:24.823Z,99.90
2018-12-20T18:58:53.288Z,99.90
2018-12-20T19:01:21.706Z,99.90
2018-12-20T19:03:50.118Z,99.90
2018-12-20T19:06:18.594Z,99.90
2018-12-20T19:08:48.179Z,99.90
2018-12-20T19:11:16.667Z,99.90
2018-12-20T19:13:45.092Z,99.90
2018-12-20T19:16:14.282Z,99.90
2018-12-20T19:18:42.763Z,99.90
2018-12-20T19:21:11.331Z,99.90
2018-12-20T19:23:40.703Z,99.90
2018-12-20T19:26:09.255Z,99.90
2018-12-20T19:28:37.737Z,99.90
2018-12-20T19:31:06.794Z,99.90
2018-12-20T19:33:35.287Z,99.90
2018-12-20T19:36:03.840Z,99.90
2018-12-20T19:38:32.455Z,99.90
2018-12-20T19:41:00.868Z,99.90
2018-12-20T19:43:29.270Z,99.90
2018-12-20T19:45:57.719Z,99.90
2018-12-20T19:48:26.175Z,99.90
2018-12-20T19:50:54.648Z,99.90
2018-12-20T19:53:23.351Z,99.90
2018-12-20T19:55:51.859Z,99.90
2018-12-20T19:58:20.415Z,99.90
2018-12-20T20:00:48.851Z,99.90
2018-12-20T20:03:17.308Z,99.90
2018-12-20T20:05:45.855Z,99.90
2018-12-20T20:08:14.488Z,99.90
2018-12-20T20:10:43.031Z,99.90
2018-12-20T20:13:18.993Z,99.90
2018-12-20T20:15:41.890Z,99.90
2018-12-20T20:18:11.375Z,99.90
2018-12-20T20:20:41.588Z,99.90
2018-12-20T20:23:11.435Z,99.90
2018-12-20T20:25:39.901Z,99.90
2018-12-20T20:28:13.408Z,99.90
2018-12-20T20:30:41.945Z,99.90
2018-12-20T20:33:10.389Z,99.90
2018-12-20T20:35:39.086Z,99.90
2018-12-20T20:38:08.819Z,99.90
2018-12-20T20:40:37.233Z,99.90
2018-12-20T20:43:05.733Z,99.90
2018-12-20T20:45:34.255Z,99.90
2018-12-20T20:48:02.677Z,99.90
2018-12-20T20:50:31.123Z,99.90
2018-12-20T20:52:59.550Z,99.90
2018-12-20T20:55:28.019Z,99.90
2018-12-20T20:57:56.608Z,99.90
2018-12-20T21:00:25.165Z,99.90
2018-12-20T21:02:55.006Z,99.90
2018-12-20T21:05:24.020Z,99.90
2018-12-20T21:07:52.498Z,99.90
2018-12-20T21:10:27.460Z,99.90
2018-12-20T21:12:55.976Z,99.90
2018-12-20T21:15:24.480Z,99.90
2018-12-20T21:17:52.875Z,99.90
2018-12-20T21:20:30.479Z,99.90
2018-12-20T21:22:53.952Z,99.90
2018-12-20T21:25:22.533Z,99.90
2018-12-20T21:27:51.045Z,99.90
2018-12-20T21:30:19.471Z,99.90
2018-12-20T21:32:48.131Z,99.90
2018-12-20T21:35:19.812Z,99.90
2018-12-20T21:37:48.306Z,99.90
2018-12-20T21:40:18.659Z,99.90
2018-12-20T21:42:47.397Z,99.90
2018-12-20T21:45:15.812Z,99.90
2018-12-20T21:47:44.301Z,99.90
2018-12-20T21:50:12.907Z,99.90
2018-12-20T21:52:41.363Z,99.90
2018-12-20T21:55:10.436Z,99.90
2018-12-20T21:57:39.038Z,99.90
2018-12-20T22:00:09.484Z,99.90
2018-12-20T22:02:38.435Z,99.90
2018-12-20T22:05:07.341Z,99.90
2018-12-20T22:07:35.760Z,99.90
2018-12-20T22:10:05.569Z,99.90
2018-12-20T22:12:34.015Z,99.90
2018-12-20T22:15:03.271Z,99.90
2018-12-20T22:17:31.678Z,99.90
2018-12-20T22:20:00.237Z,99.90
2018-12-20T22:22:28.599Z,99.90
2018-12-20T22:24:56.965Z,99.90
2018-12-20T22:27:25.580Z,99.90
2018-12-20T22:29:53.879Z,99.90
2018-12-20T22:32:22.972Z,99.90
2018-12-20T22:34:51.268Z,99.90
2018-12-20T22:37:19.670Z,99.90
2018-12-20T22:39:48.339Z,99.90
2018-12-20T22:42:16.784Z,99.90
2018-12-20T22:44:45.220Z,99.90
2018-12-20T22:47:18.777Z,99.90
2018-12-20T22:49:47.262Z,99.90
2018-12-20T22:52:15.805Z,99.90
2018-12-20T22:54:44.234Z,99.90
2018-12-20T22:57:13.116Z,99.90
2018-12-20T22:59:41.578Z,99.90
2018-12-20T23:02:17.908Z,99.90
2018-12-20T23:04:40.485Z,99.90
2018-12-20T23:07:08.893Z,99.90
2018-12-20T23:09:38.254Z,99.90
2018-12-20T23:12:06.992Z,99.90
2018-12-20T23:14:35.467Z,99.90
2018-12-20T23:17:03.995Z,99.90
2018-12-20T23:19:32.475Z,99.90
2018-12-20T23:22:00.979Z,99.90
2018-12-20T23:24:30.037Z,99.90
2018-12-20T23:26:58.643Z,99.90
2018-12-20T23:29:27.122Z,99.90
2018-12-20T23:31:55.631Z,99.90
2018-12-20T23:34:24.137Z,99.90
2018-12-20T23:36:52.604Z,99.90
2018-12-20T23:39:21.020Z,99.90
2018-12-20T23:41:49.470Z,99.90
2018-12-20T23:44:17.956Z,99.90
2018-12-20T23:46:46.384Z,99.90
2018-12-20T23:49:14.843Z,99.90
2018-12-20T23:51:45.403Z,99.90
2018-12-20T23:54:13.675Z,99.90
2018-12-20T23:56:42.205Z,99.90
2018-12-20T23:59:10.703Z,99.90
